Share

Fitzhugh, OK

Ada Municipal (KADH) Elev 1017 ft | 34.80 °N, 96.67 °W | Change Station

Current weather conditions updated 20 minutes ago

Clear
Clear
63 °F
Feels Like 63 °F
N
4
Wind Variable Wind from SE
Sunrise 6:51 AM
Sunset 8:01 PM
Moon Waning Gibbous

Today is forecast to be Much Warmer than yesterday.

Pressure 30.27 in
Visibility 10.0 miles
Clouds Clear
Dew Point 46 °F
Humidity 55%
Rainfall 0.00 in
Snow Depth Not available.
UV 9 out of 16
Pollen 9.80 out of 12
Air Quality Not available.
Flu Activity Regional
METAR KADH 181635Z AUTO 13003KT 10SM CLR 17/08 A3027 RMK AO2

More Conditions Fewer Conditions

Pressure 30.27 in
Visibility 10.0 miles
Clouds Clear
Dew Point 46 °F
Humidity 55%
Rainfall 0.00 in
Snow Depth Not available.
UV 9 out of 16
Pollen 9.80 out of 12
Air Quality Not available.
Flu Activity Regional
METAR KADH 181635Z AUTO 13003KT 10SM CLR 17/08 A3027 RMK AO2

More Conditions Fewer Conditions

10-Day Weather Forecast

Almanac

Astronomy

Apr. 18, 2014 Rise Set
Actual Time 6:51 AM CDT 8:01 PM CDT
Civil Twilight 6:25 AM CDT 8:27 PM CDT
Nautical Twilight 5:54 AM CDT 8:58 PM CDT
Astronomical Twilight 5:22 AM CDT 9:31 PM CDT
Moon 11:42 PM CDT 9:20 AM CDT
Length of Visible Light 14h 02m
Length of Day
13h 09m
Tomorrow will be 2m 2s longer.
Waning Gibbous, 87% of the Moon is Illuminated
Today
Waning Gibbous
Apr 22
Last Quarter
Apr 29
New
May 6
First Quarter
May 14
Full

Today's Extremes

State Highs State Lows

Community

  • What's for Lunch?
    What's for Lunch?
  • SUNRISE THROUGH THE TREES.
    SUNRISE THROUGH THE TREES.
  • Dog Wood Blossoms
    Dog Wood Blossoms
  • Morning Light
    Morning Light
  • New Day
    New Day

WunderPhotos

Upload Photos

1,702,408 photos uploaded!

Nearby

Snow Depth

Station Depth Elevation
No new snow has been reported.

Coastal Water Temperatures

Place Temperature
No Stations Reporting

Earthquake Activity

City Distance Mag. Time & Date
Perry, Oklahoma 115 miles 2.6 1:20 PM CDT
2014-04-14
Guthrie, Oklahoma 89 miles 3.0 8:17 AM CDT
2014-04-14
Guthrie, Oklahoma 88 miles 3.7 3:02 PM CDT
2014-04-13
Guthrie, Oklahoma 87 miles 2.9 12:23 PM CDT
2014-04-13
Minimum magnitude displayed is 2.5.

Nearby Weather Stations

Station Location Temp. Dew Point Humidity Wind Precip. Elev Updated Type
Sulphur, OK 69.1 °F 45 °F 42% ESE  at  10.5 mph 0.00 in / hr 994 ft 12:54 PM EDT Rapid Fire

Show More Stations Show Fewer Stations

What do you think?

We're not finished. Please let us know what you like, what you don't like, and what you are still missing.